sensor_id;sensor_type;location;lat;lon;timestamp;temperature;humidity
18694;DHT22;9477;51.414;10.362;2023-03-20T00:02:00;14.90;81.00
18694;DHT22;9477;51.414;10.362;2023-03-20T00:04:03;14.90;81.10
18694;DHT22;9477;51.414;10.362;2023-03-20T00:06:13;15.00;81.20
18694;DHT22;9477;51.414;10.362;2023-03-20T00:08:17;15.00;81.10
18694;DHT22;9477;51.414;10.362;2023-03-20T00:10:20;14.90;81.00
18694;DHT22;9477;51.414;10.362;2023-03-20T00:12:24;15.00;81.30
18694;DHT22;9477;51.414;10.362;2023-03-20T00:14:27;15.10;81.20
18694;DHT22;9477;51.414;10.362;2023-03-20T00:16:33;15.10;81.00
18694;DHT22;9477;51.414;10.362;2023-03-20T00:18:36;15.20;81.00
18694;DHT22;9477;51.414;10.362;2023-03-20T00:20:39;15.10;81.50
18694;DHT22;9477;51.414;10.362;2023-03-20T00:22:42;15.10;81.00
18694;DHT22;9477;51.414;10.362;2023-03-20T00:24:45;15.20;81.00
18694;DHT22;9477;51.414;10.362;2023-03-20T00:26:49;15.20;80.80
18694;DHT22;9477;51.414;10.362;2023-03-20T00:28:52;15.20;80.80
18694;DHT22;9477;51.414;10.362;2023-03-20T00:30:55;15.20;80.80
18694;DHT22;9477;51.414;10.362;2023-03-20T00:32:59;15.20;80.90
18694;DHT22;9477;51.414;10.362;2023-03-20T00:35:16;15.10;80.90
18694;DHT22;9477;51.414;10.362;2023-03-20T00:37:19;15.10;81.00
18694;DHT22;9477;51.414;10.362;2023-03-20T00:39:22;15.10;81.10
18694;DHT22;9477;51.414;10.362;2023-03-20T00:41:27;15.10;81.80
18694;DHT22;9477;51.414;10.362;2023-03-20T00:43:31;15.10;81.20
18694;DHT22;9477;51.414;10.362;2023-03-20T00:45:34;14.70;81.30
18694;DHT22;9477;51.414;10.362;2023-03-20T00:47:38;14.70;81.70
18694;DHT22;9477;51.414;10.362;2023-03-20T00:49:43;14.60;82.30
18694;DHT22;9477;51.414;10.362;2023-03-20T00:51:47;14.50;82.30
18694;DHT22;9477;51.414;10.362;2023-03-20T00:53:50;14.40;82.90
18694;DHT22;9477;51.414;10.362;2023-03-20T00:55:53;14.30;83.00
18694;DHT22;9477;51.414;10.362;2023-03-20T00:57:58;14.30;83.60
18694;DHT22;9477;51.414;10.362;2023-03-20T01:00:05;14.10;84.30
18694;DHT22;9477;51.414;10.362;2023-03-20T01:02:10;14.00;84.70
18694;DHT22;9477;51.414;10.362;2023-03-20T01:04:16;13.80;85.40
18694;DHT22;9477;51.414;10.362;2023-03-20T01:06:21;13.70;85.80
18694;DHT22;9477;51.414;10.362;2023-03-20T01:08:24;13.70;86.00
18694;DHT22;9477;51.414;10.362;2023-03-20T01:10:29;13.80;86.10
18694;DHT22;9477;51.414;10.362;2023-03-20T01:12:33;14.00;85.60
18694;DHT22;9477;51.414;10.362;2023-03-20T01:14:36;13.80;85.90
18694;DHT22;9477;51.414;10.362;2023-03-20T01:16:39;13.90;86.30
18694;DHT22;9477;51.414;10.362;2023-03-20T01:18:42;14.00;86.00
18694;DHT22;9477;51.414;10.362;2023-03-20T01:20:45;14.00;86.60
18694;DHT22;9477;51.414;10.362;2023-03-20T01:22:49;14.10;85.90
18694;DHT22;9477;51.414;10.362;2023-03-20T01:24:51;14.10;86.10
18694;DHT22;9477;51.414;10.362;2023-03-20T01:26:54;14.10;85.80
18694;DHT22;9477;51.414;10.362;2023-03-20T01:28:58;14.30;85.60
18694;DHT22;9477;51.414;10.362;2023-03-20T01:31:01;14.40;85.50
18694;DHT22;9477;51.414;10.362;2023-03-20T01:33:12;14.30;85.40
18694;DHT22;9477;51.414;10.362;2023-03-20T01:35:17;14.20;85.60
18694;DHT22;9477;51.414;10.362;2023-03-20T01:37:24;14.10;85.70
18694;DHT22;9477;51.414;10.362;2023-03-20T01:39:31;14.10;85.70
18694;DHT22;9477;51.414;10.362;2023-03-20T01:41:35;14.20;85.70
18694;DHT22;9477;51.414;10.362;2023-03-20T01:43:38;14.30;85.40
18694;DHT22;9477;51.414;10.362;2023-03-20T01:45:51;14.30;85.20
18694;DHT22;9477;51.414;10.362;2023-03-20T01:47:56;14.40;85.10
18694;DHT22;9477;51.414;10.362;2023-03-20T01:50:27;14.40;84.90
18694;DHT22;9477;51.414;10.362;2023-03-20T01:52:30;14.30;84.80
18694;DHT22;9477;51.414;10.362;2023-03-20T01:54:37;14.30;84.50
18694;DHT22;9477;51.414;10.362;2023-03-20T01:56:43;14.10;84.60
18694;DHT22;9477;51.414;10.362;2023-03-20T01:58:52;14.10;84.90
18694;DHT22;9477;51.414;10.362;2023-03-20T02:00:57;14.10;84.90
18694;DHT22;9477;51.414;10.362;2023-03-20T02:03:01;14.10;84.60
18694;DHT22;9477;51.414;10.362;2023-03-20T02:05:07;14.10;84.60
18694;DHT22;9477;51.414;10.362;2023-03-20T02:07:12;13.90;85.00
18694;DHT22;9477;51.414;10.362;2023-03-20T02:09:17;13.60;85.50
18694;DHT22;9477;51.414;10.362;2023-03-20T02:11:23;13.50;85.60
18694;DHT22;9477;51.414;10.362;2023-03-20T02:13:28;13.50;85.80
18694;DHT22;9477;51.414;10.362;2023-03-20T02:15:32;13.60;85.80
18694;DHT22;9477;51.414;10.362;2023-03-20T02:17:36;13.70;85.60
18694;DHT22;9477;51.414;10.362;2023-03-20T02:19:48;13.80;85.40
18694;DHT22;9477;51.414;10.362;2023-03-20T02:22:18;13.90;85.10
18694;DHT22;9477;51.414;10.362;2023-03-20T02:24:47;14.10;84.90
18694;DHT22;9477;51.414;10.362;2023-03-20T02:27:05;14.10;84.40
18694;DHT22;9477;51.414;10.362;2023-03-20T02:29:37;14.20;84.70
18694;DHT22;9477;51.414;10.362;2023-03-20T02:32:16;14.10;84.20
18694;DHT22;9477;51.414;10.362;2023-03-20T02:34:51;14.10;84.20
18694;DHT22;9477;51.414;10.362;2023-03-20T02:37:22;14.10;84.10
18694;DHT22;9477;51.414;10.362;2023-03-20T02:39:57;14.20;84.30
18694;DHT22;9477;51.414;10.362;2023-03-20T02:42:09;14.30;84.20
18694;DHT22;9477;51.414;10.362;2023-03-20T02:44:20;14.30;83.90
18694;DHT22;9477;51.414;10.362;2023-03-20T02:46:32;14.30;83.80
18694;DHT22;9477;51.414;10.362;2023-03-20T02:48:43;14.30;83.80
18694;DHT22;9477;51.414;10.362;2023-03-20T02:50:50;14.40;83.80
18694;DHT22;9477;51.414;10.362;2023-03-20T02:53:01;14.40;83.70
18694;DHT22;9477;51.414;10.362;2023-03-20T02:55:13;14.40;83.60
18694;DHT22;9477;51.414;10.362;2023-03-20T02:57:22;14.40;83.50
18694;DHT22;9477;51.414;10.362;2023-03-20T02:59:29;14.40;83.30
18694;DHT22;9477;51.414;10.362;2023-03-20T03:01:37;14.30;83.20
18694;DHT22;9477;51.414;10.362;2023-03-20T03:03:45;14.30;83.50
18694;DHT22;9477;51.414;10.362;2023-03-20T03:05:52;14.30;83.60
18694;DHT22;9477;51.414;10.362;2023-03-20T03:07:59;14.30;83.60
18694;DHT22;9477;51.414;10.362;2023-03-20T03:10:06;14.40;83.60
18694;DHT22;9477;51.414;10.362;2023-03-20T03:12:13;14.40;83.60
18694;DHT22;9477;51.414;10.362;2023-03-20T03:14:24;14.30;83.30
18694;DHT22;9477;51.414;10.362;2023-03-20T03:16:30;14.30;83.50
18694;DHT22;9477;51.414;10.362;2023-03-20T03:18:35;14.30;83.50
18694;DHT22;9477;51.414;10.362;2023-03-20T03:20:39;14.20;83.50
18694;DHT22;9477;51.414;10.362;2023-03-20T03:22:43;14.20;83.80
18694;DHT22;9477;51.414;10.362;2023-03-20T03:24:49;14.20;83.80
18694;DHT22;9477;51.414;10.362;2023-03-20T03:26:52;13.90;84.20
18694;DHT22;9477;51.414;10.362;2023-03-20T03:28:56;13.80;85.00
18694;DHT22;9477;51.414;10.362;2023-03-20T03:31:04;13.70;85.50
18694;DHT22;9477;51.414;10.362;2023-03-20T03:33:14;13.80;85.70
18694;DHT22;9477;51.414;10.362;2023-03-20T03:35:21;13.80;86.10
18694;DHT22;9477;51.414;10.362;2023-03-20T03:37:39;13.80;86.10
18694;DHT22;9477;51.414;10.362;2023-03-20T03:39:49;13.60;86.60
18694;DHT22;9477;51.414;10.362;2023-03-20T03:41:59;13.70;86.70
18694;DHT22;9477;51.414;10.362;2023-03-20T03:44:10;13.80;86.90
18694;DHT22;9477;51.414;10.362;2023-03-20T03:46:17;13.80;87.00
18694;DHT22;9477;51.414;10.362;2023-03-20T03:48:24;13.60;87.40
18694;DHT22;9477;51.414;10.362;2023-03-20T03:50:30;13.80;87.40
18694;DHT22;9477;51.414;10.362;2023-03-20T03:52:35;13.70;87.60
18694;DHT22;9477;51.414;10.362;2023-03-20T03:54:43;13.80;87.70
18694;DHT22;9477;51.414;10.362;2023-03-20T03:56:49;13.90;87.50
18694;DHT22;9477;51.414;10.362;2023-03-20T03:58:55;13.70;88.10
18694;DHT22;9477;51.414;10.362;2023-03-20T04:00:59;13.70;88.50
18694;DHT22;9477;51.414;10.362;2023-03-20T04:03:04;13.70;88.90
18694;DHT22;9477;51.414;10.362;2023-03-20T04:05:10;13.60;89.50
18694;DHT22;9477;51.414;10.362;2023-03-20T04:07:13;13.50;90.00
18694;DHT22;9477;51.414;10.362;2023-03-20T04:09:16;13.30;90.40
18694;DHT22;9477;51.414;10.362;2023-03-20T04:11:21;13.40;90.50
18694;DHT22;9477;51.414;10.362;2023-03-20T04:13:26;13.40;90.60
18694;DHT22;9477;51.414;10.362;2023-03-20T04:15:29;13.50;90.70
18694;DHT22;9477;51.414;10.362;2023-03-20T04:17:32;13.20;90.90
18694;DHT22;9477;51.414;10.362;2023-03-20T04:19:35;13.10;91.10
18694;DHT22;9477;51.414;10.362;2023-03-20T04:21:38;12.80;91.50
18694;DHT22;9477;51.414;10.362;2023-03-20T04:23:41;12.90;91.70
18694;DHT22;9477;51.414;10.362;2023-03-20T04:25:44;13.20;91.70
18694;DHT22;9477;51.414;10.362;2023-03-20T04:27:47;13.30;91.50
18694;DHT22;9477;51.414;10.362;2023-03-20T04:29:51;13.40;91.40
18694;DHT22;9477;51.414;10.362;2023-03-20T04:31:54;13.10;91.30
18694;DHT22;9477;51.414;10.362;2023-03-20T04:33:57;13.10;91.40
18694;DHT22;9477;51.414;10.362;2023-03-20T04:36:00;13.00;91.80
18694;DHT22;9477;51.414;10.362;2023-03-20T04:38:03;13.20;91.70
18694;DHT22;9477;51.414;10.362;2023-03-20T04:40:07;13.30;91.60
18694;DHT22;9477;51.414;10.362;2023-03-20T04:42:10;13.40;91.40
18694;DHT22;9477;51.414;10.362;2023-03-20T04:44:13;13.10;91.50
18694;DHT22;9477;51.414;10.362;2023-03-20T04:46:17;12.70;91.90
18694;DHT22;9477;51.414;10.362;2023-03-20T04:48:20;12.50;92.50
18694;DHT22;9477;51.414;10.362;2023-03-20T04:50:22;12.40;92.90
18694;DHT22;9477;51.414;10.362;2023-03-20T04:52:25;12.50;93.20
18694;DHT22;9477;51.414;10.362;2023-03-20T04:54:28;12.60;93.10
18694;DHT22;9477;51.414;10.362;2023-03-20T04:56:31;12.90;93.00
18694;DHT22;9477;51.414;10.362;2023-03-20T04:58:34;13.10;92.80
18694;DHT22;9477;51.414;10.362;2023-03-20T05:00:37;13.30;92.60
18694;DHT22;9477;51.414;10.362;2023-03-20T05:02:42;13.10;92.40
18694;DHT22;9477;51.414;10.362;2023-03-20T05:04:45;13.30;92.50
18694;DHT22;9477;51.414;10.362;2023-03-20T05:06:48;13.40;92.30
18694;DHT22;9477;51.414;10.362;2023-03-20T05:08:51;13.50;92.20
18694;DHT22;9477;51.414;10.362;2023-03-20T05:10:54;13.60;92.20
18694;DHT22;9477;51.414;10.362;2023-03-20T05:12:57;13.60;92.00
18694;DHT22;9477;51.414;10.362;2023-03-20T05:15:00;13.70;91.90
18694;DHT22;9477;51.414;10.362;2023-03-20T05:17:03;13.60;91.70
18694;DHT22;9477;51.414;10.362;2023-03-20T05:19:07;13.20;91.80
18694;DHT22;9477;51.414;10.362;2023-03-20T05:21:10;13.20;92.10
18694;DHT22;9477;51.414;10.362;2023-03-20T05:23:13;13.30;92.10
18694;DHT22;9477;51.414;10.362;2023-03-20T05:25:16;13.30;92.10
18694;DHT22;9477;51.414;10.362;2023-03-20T05:27:19;13.50;92.00
18694;DHT22;9477;51.414;10.362;2023-03-20T05:29:21;13.60;91.80
18694;DHT22;9477;51.414;10.362;2023-03-20T05:31:24;13.50;91.70
18694;DHT22;9477;51.414;10.362;2023-03-20T05:33:27;13.60;91.80
18694;DHT22;9477;51.414;10.362;2023-03-20T05:35:31;13.40;91.90
18694;DHT22;9477;51.414;10.362;2023-03-20T05:37:34;13.30;92.00
18694;DHT22;9477;51.414;10.362;2023-03-20T05:39:37;13.10;92.20
18694;DHT22;9477;51.414;10.362;2023-03-20T05:41:40;13.30;92.20
18694;DHT22;9477;51.414;10.362;2023-03-20T05:43:46;13.20;91.70
18694;DHT22;9477;51.414;10.362;2023-03-20T05:45:49;13.10;91.50
18694;DHT22;9477;51.414;10.362;2023-03-20T05:47:51;12.70;91.30
18694;DHT22;9477;51.414;10.362;2023-03-20T05:49:54;12.80;91.60
18694;DHT22;9477;51.414;10.362;2023-03-20T05:51:58;12.80;91.50
18694;DHT22;9477;51.414;10.362;2023-03-20T05:54:01;12.80;91.60
18694;DHT22;9477;51.414;10.362;2023-03-20T05:56:05;12.60;91.20
18694;DHT22;9477;51.414;10.362;2023-03-20T05:58:08;12.60;91.50
18694;DHT22;9477;51.414;10.362;2023-03-20T06:00:11;12.60;91.50
18694;DHT22;9477;51.414;10.362;2023-03-20T06:02:14;12.80;91.70
18694;DHT22;9477;51.414;10.362;2023-03-20T06:04:17;12.80;91.20
18694;DHT22;9477;51.414;10.362;2023-03-20T06:06:20;12.90;91.10
18694;DHT22;9477;51.414;10.362;2023-03-20T06:08:24;12.90;91.10
18694;DHT22;9477;51.414;10.362;2023-03-20T06:10:28;12.90;91.20
18694;DHT22;9477;51.414;10.362;2023-03-20T06:12:30;12.70;91.20
18694;DHT22;9477;51.414;10.362;2023-03-20T06:14:33;12.70;91.10
18694;DHT22;9477;51.414;10.362;2023-03-20T06:16:36;12.40;91.20
18694;DHT22;9477;51.414;10.362;2023-03-20T06:18:39;12.50;91.50
18694;DHT22;9477;51.414;10.362;2023-03-20T06:20:42;12.20;91.20
18694;DHT22;9477;51.414;10.362;2023-03-20T06:22:45;12.70;91.60
18694;DHT22;9477;51.414;10.362;2023-03-20T06:24:49;13.00;91.60
18694;DHT22;9477;51.414;10.362;2023-03-20T06:26:52;12.90;91.10
18694;DHT22;9477;51.414;10.362;2023-03-20T06:28:55;13.00;91.00
18694;DHT22;9477;51.414;10.362;2023-03-20T06:30:58;13.30;91.30
18694;DHT22;9477;51.414;10.362;2023-03-20T06:33:01;13.40;90.90
18694;DHT22;9477;51.414;10.362;2023-03-20T06:35:05;13.30;90.60
18694;DHT22;9477;51.414;10.362;2023-03-20T06:37:08;13.40;90.80
18694;DHT22;9477;51.414;10.362;2023-03-20T06:39:11;13.50;90.90
18694;DHT22;9477;51.414;10.362;2023-03-20T06:41:16;13.70;90.90
18694;DHT22;9477;51.414;10.362;2023-03-20T06:43:35;13.70;90.80
18694;DHT22;9477;51.414;10.362;2023-03-20T06:45:38;13.80;90.50
18694;DHT22;9477;51.414;10.362;2023-03-20T06:47:40;13.80;90.50
18694;DHT22;9477;51.414;10.362;2023-03-20T06:49:43;13.70;90.50
18694;DHT22;9477;51.414;10.362;2023-03-20T06:51:46;13.50;90.60
18694;DHT22;9477;51.414;10.362;2023-03-20T06:53:49;13.60;90.80
18694;DHT22;9477;51.414;10.362;2023-03-20T06:55:52;13.60;90.80
18694;DHT22;9477;51.414;10.362;2023-03-20T06:57:56;13.70;90.90
18694;DHT22;9477;51.414;10.362;2023-03-20T06:59:59;13.80;90.60
18694;DHT22;9477;51.414;10.362;2023-03-20T07:02:02;13.80;90.40
18694;DHT22;9477;51.414;10.362;2023-03-20T07:04:05;13.90;90.60
18694;DHT22;9477;51.414;10.362;2023-03-20T07:06:08;13.50;90.20
18694;DHT22;9477;51.414;10.362;2023-03-20T07:08:12;13.50;90.80
18694;DHT22;9477;51.414;10.362;2023-03-20T07:10:15;13.80;91.10
18694;DHT22;9477;51.414;10.362;2023-03-20T07:12:18;14.00;90.70
18694;DHT22;9477;51.414;10.362;2023-03-20T07:14:22;14.10;90.40
18694;DHT22;9477;51.414;10.362;2023-03-20T07:16:26;13.90;90.40
18694;DHT22;9477;51.414;10.362;2023-03-20T07:18:29;13.60;90.60
18694;DHT22;9477;51.414;10.362;2023-03-20T07:20:32;13.70;90.70
18694;DHT22;9477;51.414;10.362;2023-03-20T07:22:35;13.10;90.60
18694;DHT22;9477;51.414;10.362;2023-03-20T07:24:38;13.10;91.00
18694;DHT22;9477;51.414;10.362;2023-03-20T07:26:40;13.00;91.30
18694;DHT22;9477;51.414;10.362;2023-03-20T07:28:43;12.70;91.50
18694;DHT22;9477;51.414;10.362;2023-03-20T07:30:47;12.80;91.60
18694;DHT22;9477;51.414;10.362;2023-03-20T07:32:50;13.00;91.80
18694;DHT22;9477;51.414;10.362;2023-03-20T07:34:53;13.30;91.50
18694;DHT22;9477;51.414;10.362;2023-03-20T07:36:56;13.20;91.00
18694;DHT22;9477;51.414;10.362;2023-03-20T07:38:59;13.40;91.30
18694;DHT22;9477;51.414;10.362;2023-03-20T07:41:01;13.50;91.00
18694;DHT22;9477;51.414;10.362;2023-03-20T07:43:05;13.60;91.00
18694;DHT22;9477;51.414;10.362;2023-03-20T07:45:08;13.40;90.50
18694;DHT22;9477;51.414;10.362;2023-03-20T07:47:12;13.00;90.60
18694;DHT22;9477;51.414;10.362;2023-03-20T07:49:16;13.20;91.00
18694;DHT22;9477;51.414;10.362;2023-03-20T07:51:20;13.30;91.10
18694;DHT22;9477;51.414;10.362;2023-03-20T07:53:23;13.30;90.90
18694;DHT22;9477;51.414;10.362;2023-03-20T07:55:25;13.40;91.00
18694;DHT22;9477;51.414;10.362;2023-03-20T07:57:28;13.70;91.10
18694;DHT22;9477;51.414;10.362;2023-03-20T07:59:31;13.80;90.90
18694;DHT22;9477;51.414;10.362;2023-03-20T08:01:34;13.70;90.50
18694;DHT22;9477;51.414;10.362;2023-03-20T08:03:38;13.70;90.60
18694;DHT22;9477;51.414;10.362;2023-03-20T08:05:42;13.70;90.60
18694;DHT22;9477;51.414;10.362;2023-03-20T08:07:48;13.80;91.10
18694;DHT22;9477;51.414;10.362;2023-03-20T08:09:51;14.00;91.00
18694;DHT22;9477;51.414;10.362;2023-03-20T08:11:54;14.30;90.70
18694;DHT22;9477;51.414;10.362;2023-03-20T08:13:56;14.10;90.20
18694;DHT22;9477;51.414;10.362;2023-03-20T08:15:59;14.20;90.50
18694;DHT22;9477;51.414;10.362;2023-03-20T08:18:02;14.50;90.70
18694;DHT22;9477;51.414;10.362;2023-03-20T08:20:08;14.40;90.40
18694;DHT22;9477;51.414;10.362;2023-03-20T08:22:11;14.50;90.50
18694;DHT22;9477;51.414;10.362;2023-03-20T08:24:14;14.50;90.40
18694;DHT22;9477;51.414;10.362;2023-03-20T08:26:17;14.40;90.50
18694;DHT22;9477;51.414;10.362;2023-03-20T08:28:20;14.00;89.90
18694;DHT22;9477;51.414;10.362;2023-03-20T08:30:40;14.10;90.50
18694;DHT22;9477;51.414;10.362;2023-03-20T08:32:43;13.90;90.30
18694;DHT22;9477;51.414;10.362;2023-03-20T08:34:46;13.70;90.30
18694;DHT22;9477;51.414;10.362;2023-03-20T08:36:50;13.60;90.50
18694;DHT22;9477;51.414;10.362;2023-03-20T08:38:53;13.70;90.80
18694;DHT22;9477;51.414;10.362;2023-03-20T08:40:56;13.60;90.90
18694;DHT22;9477;51.414;10.362;2023-03-20T08:42:59;13.30;90.60
18694;DHT22;9477;51.414;10.362;2023-03-20T08:45:02;13.50;91.10
18694;DHT22;9477;51.414;10.362;2023-03-20T08:47:05;13.70;91.20
18694;DHT22;9477;51.414;10.362;2023-03-20T08:49:08;13.90;91.10
18694;DHT22;9477;51.414;10.362;2023-03-20T08:51:11;13.80;90.70
18694;DHT22;9477;51.414;10.362;2023-03-20T08:53:15;13.60;90.70
18694;DHT22;9477;51.414;10.362;2023-03-20T08:55:18;13.60;90.80
18694;DHT22;9477;51.414;10.362;2023-03-20T08:57:21;13.70;91.10
18694;DHT22;9477;51.414;10.362;2023-03-20T08:59:24;13.60;91.00
18694;DHT22;9477;51.414;10.362;2023-03-20T09:01:27;13.60;91.10
18694;DHT22;9477;51.414;10.362;2023-03-20T09:03:48;13.70;91.10
18694;DHT22;9477;51.414;10.362;2023-03-20T09:05:52;13.50;90.90
18694;DHT22;9477;51.414;10.362;2023-03-20T09:07:55;13.80;91.20
18694;DHT22;9477;51.414;10.362;2023-03-20T09:10:00;13.90;91.10
18694;DHT22;9477;51.414;10.362;2023-03-20T09:12:03;13.50;90.50
18694;DHT22;9477;51.414;10.362;2023-03-20T09:14:05;13.60;90.90
18694;DHT22;9477;51.414;10.362;2023-03-20T09:16:09;13.70;91.20
18694;DHT22;9477;51.414;10.362;2023-03-20T09:18:15;13.70;91.50
18694;DHT22;9477;51.414;10.362;2023-03-20T09:20:18;13.80;91.20
18694;DHT22;9477;51.414;10.362;2023-03-20T09:22:21;14.00;91.30
18694;DHT22;9477;51.414;10.362;2023-03-20T09:24:24;14.20;91.40
18694;DHT22;9477;51.414;10.362;2023-03-20T09:26:28;14.00;91.10
18694;DHT22;9477;51.414;10.362;2023-03-20T09:28:31;13.70;91.20
18694;DHT22;9477;51.414;10.362;2023-03-20T09:30:34;13.80;91.60
18694;DHT22;9477;51.414;10.362;2023-03-20T09:32:38;14.00;91.70
18694;DHT22;9477;51.414;10.362;2023-03-20T09:34:41;14.30;91.90
18694;DHT22;9477;51.414;10.362;2023-03-20T09:36:43;14.80;91.80
18694;DHT22;9477;51.414;10.362;2023-03-20T09:38:46;15.00;91.30
18694;DHT22;9477;51.414;10.362;2023-03-20T09:40:51;15.20;91.00
18694;DHT22;9477;51.414;10.362;2023-03-20T09:43:03;15.30;90.90
18694;DHT22;9477;51.414;10.362;2023-03-20T09:45:11;15.50;90.80
18694;DHT22;9477;51.414;10.362;2023-03-20T09:47:23;15.60;90.70
18694;DHT22;9477;51.414;10.362;2023-03-20T09:49:39;15.70;90.60
18694;DHT22;9477;51.414;10.362;2023-03-20T09:51:44;15.70;90.40
18694;DHT22;9477;51.414;10.362;2023-03-20T09:53:52;15.90;90.60
18694;DHT22;9477;51.414;10.362;2023-03-20T09:56:02;16.00;90.50
18694;DHT22;9477;51.414;10.362;2023-03-20T09:58:12;16.10;90.10
18694;DHT22;9477;51.414;10.362;2023-03-20T10:00:19;16.00;89.80
18694;DHT22;9477;51.414;10.362;2023-03-20T10:02:33;16.00;90.10
18694;DHT22;9477;51.414;10.362;2023-03-20T10:04:38;16.00;90.00
18694;DHT22;9477;51.414;10.362;2023-03-20T10:06:41;15.90;89.60
18694;DHT22;9477;51.414;10.362;2023-03-20T10:08:44;15.50;89.40
18694;DHT22;9477;51.414;10.362;2023-03-20T10:10:50;15.30;90.00
18694;DHT22;9477;51.414;10.362;2023-03-20T10:13:01;15.00;90.20
18694;DHT22;9477;51.414;10.362;2023-03-20T10:15:18;15.20;90.60
18694;DHT22;9477;51.414;10.362;2023-03-20T10:17:42;15.50;90.80
18694;DHT22;9477;51.414;10.362;2023-03-20T10:19:50;15.80;90.50
18694;DHT22;9477;51.414;10.362;2023-03-20T10:21:57;16.10;90.70
18694;DHT22;9477;51.414;10.362;2023-03-20T10:24:03;16.50;90.10
18694;DHT22;9477;51.414;10.362;2023-03-20T10:26:10;17.00;90.40
18694;DHT22;9477;51.414;10.362;2023-03-20T10:28:18;17.50;90.20
18694;DHT22;9477;51.414;10.362;2023-03-20T10:30:39;17.80;89.10
18694;DHT22;9477;51.414;10.362;2023-03-20T10:32:49;17.70;87.20
18694;DHT22;9477;51.414;10.362;2023-03-20T10:35:01;17.90;88.60
18694;DHT22;9477;51.414;10.362;2023-03-20T10:37:16;18.20;88.30
18694;DHT22;9477;51.414;10.362;2023-03-20T10:39:34;17.90;85.70
18694;DHT22;9477;51.414;10.362;2023-03-20T10:41:42;17.50;85.80
18694;DHT22;9477;51.414;10.362;2023-03-20T10:43:48;17.70;87.60
18694;DHT22;9477;51.414;10.362;2023-03-20T10:45:58;17.90;87.40
18694;DHT22;9477;51.414;10.362;2023-03-20T10:48:06;17.60;84.30
18694;DHT22;9477;51.414;10.362;2023-03-20T10:50:16;17.70;86.20
18694;DHT22;9477;51.414;10.362;2023-03-20T10:52:23;17.50;85.80
18694;DHT22;9477;51.414;10.362;2023-03-20T10:54:30;17.50;86.40
18694;DHT22;9477;51.414;10.362;2023-03-20T10:56:37;17.50;86.00
18694;DHT22;9477;51.414;10.362;2023-03-20T10:58:44;17.40;86.00
18694;DHT22;9477;51.414;10.362;2023-03-20T11:00:49;17.10;84.90
18694;DHT22;9477;51.414;10.362;2023-03-20T11:02:53;17.00;86.00
18694;DHT22;9477;51.414;10.362;2023-03-20T11:04:58;16.70;85.10
18694;DHT22;9477;51.414;10.362;2023-03-20T11:07:06;16.50;85.60
18694;DHT22;9477;51.414;10.362;2023-03-20T11:09:15;16.40;86.10
18694;DHT22;9477;51.414;10.362;2023-03-20T11:11:24;16.20;86.60
18694;DHT22;9477;51.414;10.362;2023-03-20T11:13:30;16.10;86.60
18694;DHT22;9477;51.414;10.362;2023-03-20T11:15:34;16.00;86.40
18694;DHT22;9477;51.414;10.362;2023-03-20T11:17:37;16.00;86.90
18694;DHT22;9477;51.414;10.362;2023-03-20T11:19:41;15.50;86.70
18694;DHT22;9477;51.414;10.362;2023-03-20T11:21:47;15.50;87.70
18694;DHT22;9477;51.414;10.362;2023-03-20T11:23:50;15.20;87.80
18694;DHT22;9477;51.414;10.362;2023-03-20T11:25:57;15.20;88.70
18694;DHT22;9477;51.414;10.362;2023-03-20T11:28:23;15.00;89.20
18694;DHT22;9477;51.414;10.362;2023-03-20T11:30:27;14.80;89.40
18694;DHT22;9477;51.414;10.362;2023-03-20T11:32:33;15.00;89.90
18694;DHT22;9477;51.414;10.362;2023-03-20T11:34:37;14.50;89.30
18694;DHT22;9477;51.414;10.362;2023-03-20T11:36:54;14.10;89.90
18694;DHT22;9477;51.414;10.362;2023-03-20T11:39:12;14.50;90.20
18694;DHT22;9477;51.414;10.362;2023-03-20T11:41:18;14.30;90.20
18694;DHT22;9477;51.414;10.362;2023-03-20T11:43:22;14.30;90.40
18694;DHT22;9477;51.414;10.362;2023-03-20T11:45:27;14.60;90.40
18694;DHT22;9477;51.414;10.362;2023-03-20T11:47:35;14.70;90.30
18694;DHT22;9477;51.414;10.362;2023-03-20T11:49:45;14.70;90.20
18694;DHT22;9477;51.414;10.362;2023-03-20T11:51:53;14.80;90.20
18694;DHT22;9477;51.414;10.362;2023-03-20T11:54:00;14.70;90.00
18694;DHT22;9477;51.414;10.362;2023-03-20T11:56:08;14.80;90.30
18694;DHT22;9477;51.414;10.362;2023-03-20T11:58:15;14.50;90.20
18694;DHT22;9477;51.414;10.362;2023-03-20T12:00:20;14.10;90.30
18694;DHT22;9477;51.414;10.362;2023-03-20T12:02:24;14.00;90.30
18694;DHT22;9477;51.414;10.362;2023-03-20T12:04:29;13.10;89.80
18694;DHT22;9477;51.414;10.362;2023-03-20T12:06:41;13.50;90.70
18694;DHT22;9477;51.414;10.362;2023-03-20T12:08:50;13.50;90.80
18694;DHT22;9477;51.414;10.362;2023-03-20T12:10:56;13.80;90.80
18694;DHT22;9477;51.414;10.362;2023-03-20T12:13:04;14.10;90.70
18694;DHT22;9477;51.414;10.362;2023-03-20T12:15:15;14.40;90.40
18694;DHT22;9477;51.414;10.362;2023-03-20T12:17:28;14.90;90.40
18694;DHT22;9477;51.414;10.362;2023-03-20T12:19:32;14.80;89.60
18694;DHT22;9477;51.414;10.362;2023-03-20T12:21:41;14.60;88.80
18694;DHT22;9477;51.414;10.362;2023-03-20T12:23:52;14.30;89.10
18694;DHT22;9477;51.414;10.362;2023-03-20T12:26:01;14.60;90.00
18694;DHT22;9477;51.414;10.362;2023-03-20T12:28:11;15.00;90.10
18694;DHT22;9477;51.414;10.362;2023-03-20T12:30:21;15.20;88.50
18694;DHT22;9477;51.414;10.362;2023-03-20T12:32:33;15.30;88.00
18694;DHT22;9477;51.414;10.362;2023-03-20T12:34:41;15.40;87.20
18694;DHT22;9477;51.414;10.362;2023-03-20T12:36:47;15.90;88.50
18694;DHT22;9477;51.414;10.362;2023-03-20T12:38:51;15.40;85.30
18694;DHT22;9477;51.414;10.362;2023-03-20T12:40:58;15.50;85.80
18694;DHT22;9477;51.414;10.362;2023-03-20T12:43:03;15.50;86.30
18694;DHT22;9477;51.414;10.362;2023-03-20T12:45:10;15.50;86.10
18694;DHT22;9477;51.414;10.362;2023-03-20T12:47:26;15.70;86.30
18694;DHT22;9477;51.414;10.362;2023-03-20T12:49:42;16.10;87.50
18694;DHT22;9477;51.414;10.362;2023-03-20T12:51:56;16.20;85.80
18694;DHT22;9477;51.414;10.362;2023-03-20T12:54:16;16.10;84.90
18694;DHT22;9477;51.414;10.362;2023-03-20T12:56:31;15.90;85.30
18694;DHT22;9477;51.414;10.362;2023-03-20T12:58:41;15.50;83.90
18694;DHT22;9477;51.414;10.362;2023-03-20T13:00:52;15.60;84.40
18694;DHT22;9477;51.414;10.362;2023-03-20T13:03:07;15.90;85.10
18694;DHT22;9477;51.414;10.362;2023-03-20T13:05:21;15.80;83.70
18694;DHT22;9477;51.414;10.362;2023-03-20T13:07:40;15.80;84.00
18694;DHT22;9477;51.414;10.362;2023-03-20T13:10:02;15.90;83.80
18694;DHT22;9477;51.414;10.362;2023-03-20T13:12:17;15.80;82.90
18694;DHT22;9477;51.414;10.362;2023-03-20T13:14:28;16.00;83.50
18694;DHT22;9477;51.414;10.362;2023-03-20T13:16:39;16.20;83.70
18694;DHT22;9477;51.414;10.362;2023-03-20T13:18:52;16.20;82.20